createdAt,value
2022-09-12T00:01:49.264Z,97658.53
2022-09-12T00:04:15.815Z,97656.63
2022-09-12T00:06:42.333Z,97658.09
2022-09-12T00:09:13.277Z,97660.31
2022-09-12T00:11:41.330Z,97657.97
2022-09-12T00:14:08.791Z,97651.06
2022-09-12T00:16:35.964Z,97657.88
2022-09-12T00:19:03.390Z,97661.38
2022-09-12T00:21:30.032Z,97651.03
2022-09-12T00:23:56.810Z,97663.59
2022-09-12T00:26:24.602Z,97659.00
2022-09-12T00:28:51.131Z,97651.56
2022-09-12T00:31:19.765Z,97642.97
2022-09-12T00:33:46.639Z,97649.25
2022-09-12T00:36:19.455Z,97647.03
2022-09-12T00:38:47.300Z,97643.16
2022-09-12T00:41:21.875Z,97647.56
2022-09-12T00:43:59.650Z,97641.44
2022-09-12T00:46:26.149Z,97641.81
2022-09-12T00:48:56.822Z,97638.41
2022-09-12T00:51:23.370Z,97649.09
2022-09-12T00:53:51.301Z,97648.38
2022-09-12T00:56:18.818Z,97640.16
2022-09-12T00:58:49.471Z,97657.06
2022-09-12T01:01:16.001Z,97651.63
2022-09-12T01:03:42.582Z,97644.16
2022-09-12T01:06:14.156Z,97647.06
2022-09-12T01:08:41.658Z,97644.19
2022-09-12T01:11:09.922Z,97638.44
2022-09-12T01:13:36.893Z,97637.72
2022-09-12T01:16:04.753Z,97636.72
2022-09-12T01:18:41.958Z,97629.69
2022-09-12T01:21:08.445Z,97624.22
2022-09-12T01:23:44.034Z,97623.88
2022-09-12T01:26:22.454Z,97620.50
2022-09-12T01:29:01.195Z,97623.19
2022-09-12T01:31:27.632Z,97624.91
2022-09-12T01:34:00.106Z,97623.91
2022-09-12T01:36:38.132Z,97618.50
2022-09-12T01:39:06.353Z,97612.56
2022-09-12T01:41:32.747Z,97612.06
2022-09-12T01:44:03.806Z,97614.91
2022-09-12T01:46:35.280Z,97627.38
2022-09-12T01:49:12.341Z,97621.81
2022-09-12T01:51:42.446Z,97625.19
2022-09-12T01:54:12.588Z,97622.84
2022-09-12T01:56:40.798Z,97631.75
2022-09-12T01:59:29.806Z,97625.16
2022-09-12T02:02:19.426Z,97621.28
2022-09-12T02:04:49.287Z,97626.88
2022-09-12T02:07:20.627Z,97623.50
2022-09-12T02:09:50.126Z,97618.81
2022-09-12T02:12:18.450Z,97610.72
2022-09-12T02:14:51.114Z,97613.06
2022-09-12T02:17:27.101Z,97610.34
2022-09-12T02:20:00.929Z,97606.63
2022-09-12T02:22:29.472Z,97611.53
2022-09-12T02:24:59.209Z,97608.31
2022-09-12T02:27:28.487Z,97608.00
2022-09-12T02:29:55.074Z,97607.13
2022-09-12T02:32:28.484Z,97605.97
2022-09-12T02:34:59.682Z,97603.25
2022-09-12T02:37:33.865Z,97602.75
2022-09-12T02:40:00.819Z,97602.59
2022-09-12T02:42:27.370Z,97596.84
2022-09-12T02:44:55.390Z,97600.88
2022-09-12T02:47:25.179Z,97604.56
2022-09-12T02:49:52.505Z,97604.69
2022-09-12T02:52:19.465Z,97591.38
2022-09-12T02:54:46.152Z,97601.81
2022-09-12T02:57:21.919Z,97594.59
2022-09-12T02:59:50.210Z,97597.81
2022-09-12T03:02:35.297Z,97603.91
2022-09-12T03:05:11.131Z,97592.44
2022-09-12T03:07:40.435Z,97598.69
2022-09-12T03:10:12.925Z,97594.13
2022-09-12T03:12:54.765Z,97595.81
2022-09-12T03:15:24.267Z,97596.16
2022-09-12T03:17:53.761Z,97600.91
2022-09-12T03:20:26.452Z,97593.13
2022-09-12T03:23:04.367Z,97593.63
2022-09-12T03:25:35.025Z,97600.22
2022-09-12T03:28:07.405Z,97597.19
2022-09-12T03:30:44.522Z,97587.38
2022-09-12T03:33:12.081Z,97587.06
2022-09-12T03:35:38.570Z,97593.41
2022-09-12T03:38:07.903Z,97601.91
2022-09-12T03:40:37.642Z,97603.28
2022-09-12T03:43:04.647Z,97602.63
2022-09-12T03:45:31.144Z,97598.03
2022-09-12T03:47:58.249Z,97599.84
2022-09-12T03:50:24.702Z,97603.63
2022-09-12T03:52:51.133Z,97599.22
2022-09-12T03:55:17.925Z,97599.53
2022-09-12T03:57:44.516Z,97605.66
2022-09-12T04:00:11.102Z,97601.59
2022-09-12T04:02:40.170Z,97596.84
2022-09-12T04:05:06.712Z,97604.25
2022-09-12T04:07:33.187Z,97607.66
2022-09-12T04:09:59.587Z,97606.28
2022-09-12T04:12:26.055Z,97605.56
2022-09-12T04:14:52.474Z,97617.13
2022-09-12T04:17:18.905Z,97620.69
2022-09-12T04:19:45.366Z,97624.25
2022-09-12T04:22:11.818Z,97623.22
2022-09-12T04:24:38.455Z,97609.53
2022-09-12T04:27:07.846Z,97619.50
2022-09-12T04:29:35.656Z,97616.97
2022-09-12T04:32:03.079Z,97611.72
2022-09-12T04:34:32.654Z,97613.09
2022-09-12T04:36:59.102Z,97612.41
2022-09-12T04:39:25.658Z,97619.69
2022-09-12T04:41:52.103Z,97620.53
2022-09-12T04:44:18.609Z,97621.84
2022-09-12T04:46:45.978Z,97622.19
2022-09-12T04:49:13.018Z,97615.47
2022-09-12T04:51:40.434Z,97620.53
2022-09-12T04:54:11.601Z,97616.63
2022-09-12T04:56:39.432Z,97620.81
2022-09-12T04:59:06.882Z,97618.63
2022-09-12T05:01:33.358Z,97614.59
2022-09-12T05:04:00.104Z,97624.41
2022-09-12T05:06:31.092Z,97620.81
2022-09-12T05:08:58.691Z,97627.97
2022-09-12T05:11:46.769Z,97634.72
2022-09-12T05:14:13.757Z,97632.03
2022-09-12T05:16:41.215Z,97637.88
2022-09-12T05:19:07.792Z,97628.94
2022-09-12T05:21:34.250Z,97637.44
2022-09-12T05:24:01.090Z,97639.09
2022-09-12T05:26:27.749Z,97645.69
2022-09-12T05:28:55.081Z,97646.47
2022-09-12T05:31:22.763Z,97645.38
2022-09-12T05:33:50.123Z,97645.28
2022-09-12T05:36:17.946Z,97651.50
2022-09-12T05:38:44.848Z,97647.66
2022-09-12T05:41:17.517Z,97647.16
2022-09-12T05:43:45.844Z,97646.09
2022-09-12T05:46:13.773Z,97644.56
2022-09-12T05:48:41.204Z,97652.78
2022-09-12T05:51:09.605Z,97648.13
2022-09-12T05:53:37.407Z,97654.78
2022-09-12T05:56:08.577Z,97661.47
2022-09-12T05:58:38.763Z,97658.94
2022-09-12T06:01:08.044Z,97655.31
2022-09-12T06:03:35.409Z,97656.47
2022-09-12T06:06:02.735Z,97662.66
2022-09-12T06:08:29.392Z,97656.03
2022-09-12T06:11:05.877Z,97657.00
2022-09-12T06:13:33.374Z,97651.19
2022-09-12T06:16:06.566Z,97659.19
2022-09-12T06:18:33.032Z,97657.00
2022-09-12T06:21:03.030Z,97656.13
2022-09-12T06:23:29.621Z,97660.81
2022-09-12T06:25:56.078Z,97658.44
2022-09-12T06:28:22.572Z,97656.06
2022-09-12T06:30:49.089Z,97662.34
2022-09-12T06:33:15.607Z,97655.75
2022-09-12T06:35:42.107Z,97657.31
2022-09-12T06:38:09.499Z,97664.38
2022-09-12T06:40:41.466Z,97659.63
2022-09-12T06:43:07.979Z,97666.63
2022-09-12T06:45:34.382Z,97658.28
2022-09-12T06:48:00.883Z,97654.03
2022-09-12T06:50:27.282Z,97650.28
2022-09-12T06:52:53.981Z,97650.34
2022-09-12T06:55:23.572Z,97653.13
2022-09-12T06:57:54.319Z,97646.38
2022-09-12T07:00:20.835Z,97654.59
2022-09-12T07:02:47.283Z,97653.25
2022-09-12T07:05:15.123Z,97656.22
2022-09-12T07:07:41.567Z,97654.13
2022-09-12T07:10:08.379Z,97656.31
2022-09-12T07:12:34.799Z,97647.06
2022-09-12T07:15:01.291Z,97644.31
2022-09-12T07:17:27.706Z,97658.25
2022-09-12T07:19:54.343Z,97650.66
2022-09-12T07:22:20.789Z,97642.59
2022-09-12T07:24:47.601Z,97643.69
2022-09-12T07:27:14.487Z,97648.91
2022-09-12T07:29:40.901Z,97647.34
2022-09-12T07:32:07.584Z,97651.13
2022-09-12T07:34:34.240Z,97653.84
2022-09-12T07:37:00.708Z,97647.25
2022-09-12T07:39:27.127Z,97645.25
2022-09-12T07:41:53.594Z,97646.22
2022-09-12T07:46:46.373Z,97650.31
2022-09-12T07:49:13.411Z,97648.38
2022-09-12T07:51:40.469Z,97649.53
2022-09-12T07:54:09.948Z,97650.88
2022-09-12T07:56:39.198Z,97646.28
2022-09-12T07:59:06.002Z,97649.91
2022-09-12T08:01:32.712Z,97654.94
2022-09-12T08:03:59.860Z,97654.97
2022-09-12T08:06:27.900Z,97663.16
2022-09-12T08:08:55.172Z,97647.63
2022-09-12T08:11:22.513Z,97654.78
2022-09-12T08:13:54.832Z,97646.91
2022-09-12T08:16:22.878Z,97649.97
2022-09-12T08:18:49.646Z,97651.81
2022-09-12T08:21:17.763Z,97637.81
2022-09-12T08:23:44.743Z,97649.16
2022-09-12T08:26:11.942Z,97641.28
2022-09-12T08:28:40.969Z,97642.25
2022-09-12T08:31:08.697Z,97642.34
2022-09-12T08:33:35.603Z,97644.16
2022-09-12T08:36:22.648Z,97651.69
2022-09-12T08:38:50.804Z,97638.97
2022-09-12T08:41:20.094Z,97642.03
2022-09-12T08:43:56.076Z,97631.22
2022-09-12T08:46:27.325Z,97630.78
2022-09-12T08:48:55.625Z,97631.09
2022-09-12T08:51:22.230Z,97625.19
2022-09-12T08:53:51.857Z,97620.16
2022-09-12T08:56:18.600Z,97627.19
2022-09-12T08:58:46.017Z,97628.16
2022-09-12T09:01:12.449Z,97626.63
2022-09-12T09:04:05.760Z,97621.88
2022-09-12T09:06:44.434Z,97618.47
2022-09-12T09:09:26.184Z,97616.38
2022-09-12T09:11:53.114Z,97621.38
2022-09-12T09:14:58.073Z,97621.13
2022-09-12T09:17:32.562Z,97622.03
2022-09-12T09:20:03.269Z,97618.41
2022-09-12T09:22:44.541Z,97614.69
2022-09-12T09:25:31.316Z,97621.16
2022-09-12T09:28:04.656Z,97609.06
2022-09-12T09:30:31.726Z,97616.97
2022-09-12T09:33:00.301Z,97607.75
2022-09-12T09:35:26.710Z,97613.97
2022-09-12T09:38:00.882Z,97603.75
2022-09-12T09:40:31.037Z,97598.75
2022-09-12T09:43:04.640Z,97604.28
2022-09-12T09:45:31.229Z,97599.94
2022-09-12T09:47:59.779Z,97600.97
2022-09-12T09:50:26.498Z,97592.22
2022-09-12T09:52:55.793Z,97603.25
2022-09-12T09:55:26.381Z,97593.69
2022-09-12T09:57:53.566Z,97595.56
2022-09-12T10:00:27.861Z,97585.50
2022-09-12T10:03:00.411Z,97590.66
2022-09-12T10:05:28.534Z,97590.84
2022-09-12T10:07:55.135Z,97585.28
2022-09-12T10:10:25.336Z,97594.03
2022-09-12T10:13:05.916Z,97580.13
2022-09-12T10:15:34.720Z,97568.69
2022-09-12T10:18:03.041Z,97566.75
2022-09-12T10:20:31.226Z,97566.31
2022-09-12T10:23:01.786Z,97561.69
2022-09-12T10:25:28.606Z,97560.47
2022-09-12T10:27:57.253Z,97549.88
2022-09-12T10:30:28.101Z,97561.94
2022-09-12T10:32:57.982Z,97549.34
2022-09-12T10:35:42.361Z,97558.31
2022-09-12T10:38:23.623Z,97548.59
2022-09-12T10:41:01.536Z,97546.19
2022-09-12T10:43:30.952Z,97544.75
2022-09-12T10:45:58.489Z,97542.22
2022-09-12T10:48:24.939Z,97550.66
2022-09-12T10:50:51.895Z,97543.94
2022-09-12T10:53:41.578Z,97539.31
2022-09-12T10:56:08.185Z,97545.75
2022-09-12T10:58:53.697Z,97539.56
2022-09-12T11:01:32.576Z,97547.16
2022-09-12T11:04:02.102Z,97537.50
2022-09-12T11:06:36.597Z,97531.28
2022-09-12T11:09:09.618Z,97521.00
2022-09-12T11:11:37.175Z,97529.53
2022-09-12T11:14:03.567Z,97526.31
2022-09-12T11:16:41.088Z,97521.69
2022-09-12T11:19:24.700Z,97521.81
2022-09-12T11:22:06.299Z,97526.66
2022-09-12T11:24:41.333Z,97521.88
2022-09-12T11:27:26.726Z,97520.13
2022-09-12T11:30:02.294Z,97527.44
2022-09-12T11:32:35.559Z,97521.56
2022-09-12T11:35:17.448Z,97517.13
2022-09-12T11:37:53.520Z,97514.59
2022-09-12T11:40:23.043Z,97513.69
2022-09-12T11:42:52.669Z,97504.97
2022-09-12T11:45:24.610Z,97502.47
2022-09-12T11:47:54.452Z,97506.22
2022-09-12T11:50:29.482Z,97500.44
2022-09-12T11:53:00.202Z,97496.97
2022-09-12T11:55:29.890Z,97497.56
2022-09-12T11:57:57.172Z,97503.19
2022-09-12T12:00:30.891Z,97501.47
2022-09-12T12:03:06.555Z,97494.34
2022-09-12T12:05:36.135Z,97502.53
2022-09-12T12:08:04.681Z,97505.72
2022-09-12T12:10:37.266Z,97494.25
2022-09-12T12:13:11.939Z,97493.88
2022-09-12T12:15:45.991Z,97494.41
2022-09-12T12:18:17.617Z,97497.09
2022-09-12T12:20:44.289Z,97497.94
2022-09-12T12:23:29.178Z,97494.28
2022-09-12T12:25:59.817Z,97490.00
2022-09-12T12:28:38.553Z,97488.13
2022-09-12T12:31:05.456Z,97494.69
2022-09-12T12:33:31.892Z,97488.81
2022-09-12T12:36:01.587Z,97492.53
2022-09-12T12:38:27.996Z,97496.78
2022-09-12T12:40:54.802Z,97496.22
2022-09-12T12:43:32.149Z,97489.50
2022-09-12T12:46:00.944Z,97489.66
2022-09-12T12:48:29.387Z,97480.41
2022-09-12T12:51:14.443Z,97477.41
2022-09-12T12:53:41.958Z,97470.00
2022-09-12T12:56:25.670Z,97474.53
2022-09-12T12:58:58.649Z,97469.69
2022-09-12T13:01:25.673Z,97464.03
2022-09-12T13:04:01.339Z,97465.91
2022-09-12T13:06:33.922Z,97460.56
2022-09-12T13:09:02.354Z,97459.31
2022-09-12T13:11:39.166Z,97458.00
2022-09-12T13:14:09.398Z,97460.97
2022-09-12T13:16:35.883Z,97457.28
2022-09-12T13:19:04.460Z,97453.81
2022-09-12T13:21:31.107Z,97455.97
2022-09-12T13:24:02.635Z,97445.13
2022-09-12T13:26:32.765Z,97445.00
2022-09-12T13:29:09.078Z,97446.25
2022-09-12T13:31:35.622Z,97436.56
2022-09-12T13:34:05.187Z,97429.28
2022-09-12T13:36:50.473Z,97434.84
2022-09-12T13:39:21.951Z,97428.47
2022-09-12T13:42:07.461Z,97427.06
2022-09-12T13:44:39.190Z,97422.81
2022-09-12T13:47:05.664Z,97417.66
2022-09-12T13:49:35.216Z,97422.91
2022-09-12T13:52:06.791Z,97417.41
2022-09-12T13:54:34.008Z,97414.97
2022-09-12T13:57:00.567Z,97421.19
2022-09-12T13:59:27.109Z,97414.75
2022-09-12T14:01:53.749Z,97407.13
2022-09-12T14:04:42.986Z,97414.06
2022-09-12T14:07:14.066Z,97403.88
2022-09-12T14:09:41.723Z,97407.72
2022-09-12T14:12:22.132Z,97407.63
2022-09-12T14:14:50.438Z,97400.81
2022-09-12T14:17:23.031Z,97403.28
2022-09-12T14:19:50.746Z,97398.09
2022-09-12T14:22:20.232Z,97398.75
2022-09-12T14:24:51.432Z,97398.47
2022-09-12T14:27:19.778Z,97390.09
2022-09-12T14:29:47.251Z,97387.59
2022-09-12T14:32:21.200Z,97390.69
2022-09-12T14:35:16.962Z,97383.72
2022-09-12T14:37:44.681Z,97378.09
2022-09-12T14:40:19.218Z,97375.16
2022-09-12T14:42:46.823Z,97376.81
2022-09-12T14:45:16.661Z,97375.53
2022-09-12T14:47:44.410Z,97375.50
2022-09-12T14:50:18.902Z,97373.03
2022-09-12T14:52:47.735Z,97364.22
2022-09-12T14:55:29.467Z,97376.16
2022-09-12T14:58:15.370Z,97363.72
2022-09-12T15:01:04.839Z,97369.13
2022-09-12T15:03:33.169Z,97360.50
2022-09-12T15:06:02.755Z,97363.53
2022-09-12T15:08:30.262Z,97363.63
2022-09-12T15:10:57.400Z,97366.91
2022-09-12T15:13:25.849Z,97365.47
2022-09-12T15:15:53.774Z,97361.63
2022-09-12T15:18:21.133Z,97363.66
2022-09-12T15:20:49.862Z,97356.88
2022-09-12T15:23:36.242Z,97358.63
2022-09-12T15:26:03.311Z,97363.41
2022-09-12T15:28:30.828Z,97360.22
2022-09-12T15:30:58.725Z,97358.41
2022-09-12T15:33:25.519Z,97358.31
2022-09-12T15:35:52.710Z,97358.69
2022-09-12T15:38:23.052Z,97354.34
2022-09-12T15:40:55.776Z,97360.31
2022-09-12T15:43:22.781Z,97371.16
2022-09-12T15:45:51.443Z,97365.28
2022-09-12T15:48:18.107Z,97369.84
2022-09-12T15:50:44.692Z,97369.63
2022-09-12T15:53:14.184Z,97367.47
2022-09-12T15:55:40.683Z,97372.03
2022-09-12T15:58:07.605Z,97370.03
2022-09-12T16:00:34.097Z,97372.94
2022-09-12T16:03:01.210Z,97373.28
2022-09-12T16:05:27.887Z,97368.03
2022-09-12T16:07:55.146Z,97371.19
2022-09-12T16:10:23.408Z,97375.06
2022-09-12T16:12:50.015Z,97375.44
2022-09-12T16:15:19.121Z,97370.44
2022-09-12T16:17:45.639Z,97372.44
2022-09-12T16:20:12.784Z,97363.31
2022-09-12T16:22:39.611Z,97365.28
2022-09-12T16:25:06.490Z,97373.41
2022-09-12T16:27:33.022Z,97371.38
2022-09-12T16:29:59.570Z,97370.84
2022-09-12T16:32:26.202Z,97375.19
2022-09-12T16:34:52.834Z,97381.28
2022-09-12T16:37:19.341Z,97381.59
2022-09-12T16:39:46.438Z,97382.28
2022-09-12T16:42:12.929Z,97374.44
2022-09-12T16:44:39.330Z,97382.28
2022-09-12T16:47:05.824Z,97376.91
2022-09-12T16:49:32.249Z,97383.72
2022-09-12T16:51:58.691Z,97379.97
2022-09-12T16:54:25.183Z,97391.13
2022-09-12T16:56:51.638Z,97394.13
2022-09-12T16:59:18.141Z,97390.59
2022-09-12T17:01:45.261Z,97386.56
2022-09-12T17:04:11.874Z,97389.38
2022-09-12T17:06:38.550Z,97389.09
2022-09-12T17:09:05.168Z,97400.69
2022-09-12T17:11:36.426Z,97393.06
2022-09-12T17:14:06.970Z,97399.28
2022-09-12T17:16:35.316Z,97399.97
2022-09-12T17:19:01.825Z,97414.72
2022-09-12T17:21:28.342Z,97404.75
2022-09-12T17:23:55.356Z,97411.53
2022-09-12T17:26:21.830Z,97416.66
2022-09-12T17:28:48.300Z,97411.88
2022-09-12T17:31:15.182Z,97423.47
2022-09-12T17:33:41.962Z,97423.66
2022-09-12T17:36:14.944Z,97421.78
2022-09-12T17:38:42.526Z,97432.31
2022-09-12T17:41:17.734Z,97441.56
2022-09-12T17:43:46.415Z,97439.47
2022-09-12T17:46:12.995Z,97436.94
2022-09-12T17:48:39.430Z,97443.66
2022-09-12T17:51:09.870Z,97447.03
2022-09-12T17:53:36.403Z,97443.06
2022-09-12T17:56:04.022Z,97459.22
2022-09-12T17:58:30.899Z,97458.16
2022-09-12T18:01:22.601Z,97465.50
2022-09-12T18:03:49.268Z,97460.28
2022-09-12T18:06:15.761Z,97473.06
2022-09-12T18:08:42.187Z,97467.81
2022-09-12T18:11:08.631Z,97475.13
2022-09-12T18:13:35.529Z,97472.22
2022-09-12T18:16:02.827Z,97480.78
2022-09-12T18:18:29.362Z,97479.47
2022-09-12T18:20:55.774Z,97483.84
2022-09-12T18:23:22.372Z,97484.00
2022-09-12T18:25:48.862Z,97489.19
2022-09-12T18:28:15.265Z,97493.88
2022-09-12T18:30:42.385Z,97488.19
2022-09-12T18:33:08.886Z,97496.34
2022-09-12T18:35:37.861Z,97502.69
2022-09-12T18:38:04.269Z,97500.78
2022-09-12T18:40:30.684Z,97507.59
2022-09-12T18:42:57.187Z,97513.50
2022-09-12T18:45:23.609Z,97513.78
2022-09-12T18:47:50.109Z,97513.09
2022-09-12T18:50:16.690Z,97522.31
2022-09-12T18:52:43.110Z,97521.25
2022-09-12T18:55:09.783Z,97519.53
2022-09-12T18:57:36.418Z,97519.41
2022-09-12T19:00:07.306Z,97516.38
2022-09-12T19:02:36.978Z,97522.31
2022-09-12T19:05:03.472Z,97517.97
2022-09-12T19:07:29.894Z,97520.59
2022-09-12T19:09:56.457Z,97520.53
2022-09-12T19:12:23.081Z,97514.69
2022-09-12T19:14:49.568Z,97521.34
2022-09-12T19:17:17.933Z,97521.31
2022-09-12T19:19:44.380Z,97520.44
2022-09-12T19:22:10.838Z,97521.81
2022-09-12T19:24:37.443Z,97513.38
2022-09-12T19:27:04.132Z,97519.09
2022-09-12T19:29:31.211Z,97517.41
2022-09-12T19:31:57.862Z,97524.38
2022-09-12T19:34:24.897Z,97511.69
2022-09-12T19:36:51.333Z,97528.00
2022-09-12T19:39:19.482Z,97521.16
2022-09-12T19:41:46.118Z,97518.75
2022-09-12T19:44:12.915Z,97523.19
2022-09-12T19:46:39.406Z,97523.03
2022-09-12T19:49:05.941Z,97523.13
2022-09-12T19:51:32.417Z,97523.97
2022-09-12T19:53:58.929Z,97523.69
2022-09-12T19:56:25.339Z,97527.13
2022-09-12T19:58:56.042Z,97526.03
2022-09-12T20:01:25.069Z,97529.78
2022-09-12T20:03:53.716Z,97528.34
2022-09-12T20:06:20.318Z,97531.25
2022-09-12T20:08:46.949Z,97533.06
2022-09-12T20:11:15.022Z,97536.16
2022-09-12T20:13:41.503Z,97537.06
2022-09-12T20:16:15.003Z,97539.53
2022-09-12T20:18:44.264Z,97531.31
2022-09-12T20:21:18.219Z,97534.34
2022-09-12T20:23:45.256Z,97534.94
2022-09-12T20:26:12.381Z,97530.03
2022-09-12T20:28:39.448Z,97527.94
2022-09-12T20:31:15.806Z,97531.38
2022-09-12T20:33:42.748Z,97526.63
2022-09-12T20:36:11.639Z,97532.22
2022-09-12T20:38:38.541Z,97534.41
2022-09-12T20:41:06.114Z,97535.34
2022-09-12T20:43:32.730Z,97531.28
2022-09-12T20:45:59.236Z,97535.44
2022-09-12T20:48:25.749Z,97528.06
2022-09-12T20:50:52.210Z,97535.31
2022-09-12T20:53:18.684Z,97533.34
2022-09-12T20:55:52.316Z,97542.00
2022-09-12T20:58:19.781Z,97537.66
2022-09-12T21:00:46.505Z,97548.19
2022-09-12T21:03:13.335Z,97547.59
2022-09-12T21:05:39.858Z,97551.09
2022-09-12T21:08:06.508Z,97547.84
2022-09-12T21:10:32.991Z,97548.34
2022-09-12T21:12:59.451Z,97542.09
2022-09-12T21:15:26.025Z,97542.22
2022-09-12T21:17:52.565Z,97541.28
2022-09-12T21:20:19.232Z,97540.31
2022-09-12T21:22:45.708Z,97545.84
2022-09-12T21:25:12.720Z,97548.28
2022-09-12T21:27:39.141Z,97547.00
2022-09-12T21:30:06.041Z,97540.34
2022-09-12T21:32:35.863Z,97541.91
2022-09-12T21:35:03.239Z,97544.16
2022-09-12T21:37:29.662Z,97536.75
2022-09-12T21:39:56.181Z,97543.25
2022-09-12T21:42:22.643Z,97545.03
2022-09-12T21:44:49.451Z,97544.84
2022-09-12T21:47:15.935Z,97545.34
2022-09-12T21:49:42.362Z,97537.28
2022-09-12T21:52:09.108Z,97535.59
2022-09-12T21:54:35.575Z,97542.53
2022-09-12T21:57:02.108Z,97538.53
2022-09-12T21:59:28.565Z,97540.75
2022-09-12T22:01:55.063Z,97538.94
2022-09-12T22:04:21.525Z,97547.75
2022-09-12T22:06:47.973Z,97547.41
2022-09-12T22:09:16.847Z,97543.06
2022-09-12T22:11:44.033Z,97547.53
2022-09-12T22:14:10.794Z,97549.00
2022-09-12T22:16:37.222Z,97551.16
2022-09-12T22:19:03.743Z,97544.38
2022-09-12T22:21:30.170Z,97540.97
2022-09-12T22:24:15.301Z,97541.75
2022-09-12T22:26:43.174Z,97535.16
2022-09-12T22:29:10.974Z,97542.75
2022-09-12T22:31:37.854Z,97541.78
2022-09-12T22:34:04.656Z,97538.53
2022-09-12T22:36:31.911Z,97539.28
2022-09-12T22:38:59.627Z,97533.84
2022-09-12T22:41:26.149Z,97537.59
2022-09-12T22:43:52.641Z,97530.47
2022-09-12T22:46:19.258Z,97536.75
2022-09-12T22:48:46.713Z,97531.91
2022-09-12T22:51:13.137Z,97540.34
2022-09-12T22:53:39.656Z,97541.91
2022-09-12T22:56:06.525Z,97538.84
2022-09-12T22:58:33.520Z,97538.94
2022-09-12T23:01:00.097Z,97531.19
2022-09-12T23:03:26.719Z,97539.22
2022-09-12T23:05:53.211Z,97539.28
2022-09-12T23:08:19.640Z,97530.31
2022-09-12T23:10:46.741Z,97532.16
2022-09-12T23:13:13.185Z,97536.47
2022-09-12T23:15:39.839Z,97528.59
2022-09-12T23:18:06.477Z,97521.81
2022-09-12T23:20:32.950Z,97524.22
2022-09-12T23:22:59.408Z,97525.03
2022-09-12T23:25:26.191Z,97522.94
2022-09-12T23:27:52.945Z,97515.91
2022-09-12T23:30:21.614Z,97520.34
2022-09-12T23:32:48.874Z,97519.81
2022-09-12T23:35:18.032Z,97521.38
2022-09-12T23:37:44.529Z,97512.28
2022-09-12T23:40:11.231Z,97515.94
2022-09-12T23:42:37.712Z,97509.53
2022-09-12T23:45:04.402Z,97509.44
2022-09-12T23:47:30.889Z,97508.50
2022-09-12T23:49:57.347Z,97503.69
2022-09-12T23:52:23.885Z,97497.78
2022-09-12T23:54:50.413Z,97493.09
2022-09-12T23:57:16.917Z,97501.75
2022-09-12T23:59:43.406Z,97504.97
